Observations for Trim Market St
| Time | AQI | Temp °C | Hum % | Pres Pa | CO μg/m³ | H₂S μg/m³ | NO μg/m³ | NO₂ μg/m³ | O₃ μg/m³ | SO₂ μg/m³ | PM1 μg/m³ | PM2.5 μg/m³ | PM10 μg/m³ |
|---|---|---|---|---|---|---|---|---|---|---|---|---|---|
| Sunday 23 August 2026 | |||||||||||||
| 21:45 | 3 | 14.8 | 60 | 57,819 | 0.27 | 0 | 1.22 | 15.79 | 68.37 | 0 | 0.71 | 2.51 | 3.43 |
| 21:44 | 3 | 14.8 | 60 | 57,820 | 0.25 | 0 | 1.21 | 15.79 | 66.06 | 0 | 1.43 | 3.01 | 4.11 |
| 21:43 | 3 | 14.8 | 60 | 57,824 | 0.28 | 0 | 1.17 | 18.42 | 61.58 | 0 | 1.43 | 3.01 | 4.11 |
| 21:42 | 3 | 14.8 | 60 | 57,827 | 0.28 | 0 | 1.21 | 18.4 | 60.76 | 0 | 0 | 2.52 | 3.42 |
| 21:37 | 3 | 15 | 60 | 57,833 | 0.28 | 0 | 1.23 | 17.26 | 63.24 | 0 | 1.43 | 3.53 | 4.78 |
| 21:36 | 3 | 15 | 60 | 57,837 | 0.28 | 0 | 1.23 | 18.08 | 61.87 | 0 | 0.71 | 3.53 | 4.78 |
| 21:33 | 3 | 15.1 | 60 | 57,845 | 0.29 | 0 | 1.19 | 23.44 | 54.28 | 0 | 1.43 | 4.05 | 5.46 |
| 21:30 | 3 | 15.2 | 59 | 57,849 | 0.3 | 0 | 1.33 | 24.75 | 49.58 | 0 | 2.14 | 3.56 | 6.84 |
| 21:24 | 3 | 15.4 | 59 | 57,854 | 0.28 | 0 | 1.81 | 51.56 | 8.17 | 0 | 0.71 | 3.08 | 4.06 |
| 21:23 | 3 | 15.4 | 59 | 57,853 | 0.27 | 0 | 1.43 | 35.41 | 34.96 | 0 | 0 | 2.58 | 4.06 |
| 21:22 | 3 | 15.4 | 59 | 57,853 | 0.26 | 0 | 1.32 | 31.37 | 41.79 | 0 | 1.43 | 4.09 | 6.83 |
| 21:21 | 3 | 15.4 | 58 | 57,851 | 0.26 | 0 | 1.32 | 27.3 | 47.86 | 0 | 0.71 | 3.09 | 4.05 |
| 21:20 | 3 | 15.5 | 58 | 57,849 | 0.26 | 0 | 1.34 | 26.88 | 48.62 | 0 | 0 | 2.6 | 3.35 |
| 21:17 | 3 | 15.6 | 58 | 57,834 | 0.25 | 0 | 1.19 | 25.72 | 54.33 | 0 | 0 | 2.1 | 2.65 |
| 21:15 | 3 | 15.6 | 58 | 57,811 | 0.24 | 0 | 1.17 | 27.12 | 51.8 | 0 | 0.71 | 2.61 | 4.04 |
| 21:14 | 3 | 15.7 | 58 | 57,798 | 0.24 | 0 | 1.18 | 26.67 | 52.07 | 0 | 0 | 2.62 | 3.34 |
| 21:13 | 3 | 15.7 | 58 | 57,783 | 0.22 | 0 | 1.24 | 23.42 | 57.67 | 0 | 0.71 | 2.62 | 4.03 |
| 21:11 | 3 | 15.8 | 58 | 57,761 | 0.22 | 0 | 1.34 | 19.71 | 67.48 | 0 | 0 | 2.63 | 3.33 |
| 21:06 | 3 | 15.9 | 57 | 57,706 | 0.21 | 0 | 1.08 | 23.16 | 61.93 | 0 | 0.71 | 3.15 | 4.01 |
| 21:03 | 3 | 16 | 57 | 57,646 | 0.22 | 0 | 1.17 | 25.99 | 54.2 | 0 | 0.71 | 3.16 | 4.01 |